Conyers, GA

9:11 PM EDT on September 30, 2014 (GMT -0400)
Dekalb-Peachtree | Change Station
CLOSE
Current Station
Airport
Location: Atlanta Dekalb,
Elevation: 1001 ft
Nearby Weather Stations

Elev 1001 ft 33.88 °N, 84.30 °W | Updated 18 minutes ago

Clear
Clear
67 °F
Feels Like 67 °F
N
0
Wind Variable Wind from North

Today
High -- | Low -- °F
--% Chance of Precip.
Yesterday
High -- | Low -- °F
Precip. -- in
7:29 AM 7:21 PM
Waxing Crescent, 42% visible
Pressure 29.89 in
Visibility 10.0 miles
Clouds Clear
Dew Point 62 °F
Humidity 84%
Rainfall 0.02 in
Snow Depth Not available.
UV 0 out of 12
Pollen 6.70 out of 12
Ozone Good
PM2.5 Good
Flu Activity Not available.
METAR KPDK 010053Z 00000KT 10SM CLR 19/17 A2992 RMK AO2 SLP121 T01940167

More Conditions Fewer Conditions

Pressure 29.89 in
Visibility 10.0 miles
Clouds Clear
Dew Point 62 °F
Humidity 84%
Rainfall 0.02 in
Snow Depth Not available.
UV 0 out of 12
Pollen 6.70 out of 12
Ozone Good
PM2.5 Good
Flu Activity Not available.
METAR KPDK 010053Z 00000KT 10SM CLR 19/17 A2992 RMK AO2 SLP121 T01940167

More Conditions Fewer Conditions

10-Day Weather Forecast

Almanac

Astronomy

Sep. 30, 2014 Rise Set
Actual Time 7:29 AM EDT 7:21 PM EDT
Civil Twilight 7:04 AM EDT 7:46 PM EDT
Nautical Twilight 6:35 AM EDT 8:15 PM EDT
Astronomical Twilight 6:06 AM EDT 8:44 PM EDT
Moon 1:24 PM EDT (9/30) No Moon Set
Length of Visible Light 12h 41m
Length of Day
11h 52m
Tomorrow will be 2m 4s shorter.
Waxing Crescent, 42% of the Moon is Illuminated
Today
Waxing Crescent
Oct 1
First Quarter
Oct 8
Full
Oct 15
Last Quarter
Oct 23
New

Today's Extremes

State Highs State Lows

Community

WunderPhotos

Upload Photos

1,757,815 photos uploaded!

Nearby

Air Quality

  Air Quality AQ Index Pollutant
Current Good
PM2.5
Current Good
OZONE
Wednesday Good
OZONE
Wednesday Good
PM2.5

Snow Depth

Station Depth Elevation
No new snow has been reported.

Earthquake Activity

City Distance Mag. Time & Date
No recent earthquake activity has been reported nearby.
Minimum magnitude displayed is 2.5.

Coastal Water Temperatures

Place Temperature
No Stations Reporting

Nearby Weather Stations